Time;durP1;ratioP1;P1;durP2;ratioP2;P2;SDS_P1;SDS_P2;PMS_P1;PMS_P2;Temp;Humidity;BMP_temperature;BMP_pressure;BME280_temperature;BME280_humidity;BME280_pressure;Samples;Min_cycle;Max_cycle;Signal;HPM_P1;HPM_P2
2021/12/11 00:02:32;;;;;;;57.03;14.32;;;;;;;-0.77;100.00;99793.91;5063519;28;20040;-87
2021/12/11 00:05:00;;;;;;;24.92;13.88;;;;;;;-0.82;100.00;99790.38;5045721;28;20048;-86
2021/12/11 00:07:32;;;;;;;23.55;12.85;;;;;;;-0.79;100.00;99804.16;5060110;28;20059;-86
2021/12/11 00:10:29;;;;;;;19.02;11.63;;;;;;;-0.79;100.00;99811.00;5026574;28;20048;-86
2021/12/11 00:13:02;;;;;;;25.17;14.07;;;;;;;-0.74;100.00;99817.97;5031933;28;20060;-86
2021/12/11 00:15:35;;;;;;;22.70;13.55;;;;;;;-0.72;100.00;99820.59;5049077;28;20056;-86
2021/12/11 00:18:08;;;;;;;19.05;11.18;;;;;;;-0.72;100.00;99821.47;5010852;28;20052;-86
2021/12/11 00:20:41;;;;;;;18.73;10.90;;;;;;;-0.76;100.00;99824.78;5038805;28;20065;-87
2021/12/11 00:23:10;;;;;;;18.70;12.13;;;;;;;-0.77;100.00;99820.50;5014027;28;20049;-86
2021/12/11 00:25:44;;;;;;;21.27;12.27;;;;;;;-0.78;100.00;99829.03;5031794;28;20475;-85
2021/12/11 00:28:13;;;;;;;32.10;13.57;;;;;;;-0.75;100.00;99839.38;5011965;28;20041;-86
2021/12/11 00:30:43;;;;;;;28.92;13.25;;;;;;;-0.70;100.00;99835.22;5039035;28;20122;-86
2021/12/11 00:33:20;;;;;;;22.10;12.20;;;;;;;-0.67;100.00;99840.41;5060713;28;20047;-86
2021/12/11 00:35:49;;;;;;;21.98;12.10;;;;;;;-0.64;100.00;99841.31;5046180;28;20057;-86
2021/12/11 00:38:24;;;;;;;22.25;12.52;;;;;;;-0.61;100.00;99846.53;5029339;28;20472;-86
2021/12/11 00:40:54;;;;;;;23.08;11.65;;;;;;;-0.64;100.00;99843.91;5029863;28;20456;-86
2021/12/11 00:43:28;;;;;;;21.55;12.25;;;;;;;-0.62;100.00;99853.38;5022784;28;20049;-86
2021/12/11 00:45:58;;;;;;;18.48;12.05;;;;;;;-0.59;100.00;99862.88;5047334;28;20508;-86
2021/12/11 00:48:27;;;;;;;21.58;12.18;;;;;;;-0.58;100.00;99864.63;5027035;28;20053;-86
2021/12/11 00:51:11;;;;;;;31.27;12.85;;;;;;;-0.55;100.00;99875.84;5046801;28;20510;-86
2021/12/11 00:53:51;;;;;;;26.02;12.88;;;;;;;-0.57;100.00;99869.78;5045129;28;20955;-86
2021/12/11 00:56:28;;;;;;;24.23;14.50;;;;;;;-0.59;100.00;99875.72;5030120;28;20102;-86
2021/12/11 00:59:00;;;;;;;23.90;13.15;;;;;;;-0.57;100.00;99880.06;5042857;28;20068;-86
2021/12/11 01:01:44;;;;;;;25.48;13.93;;;;;;;-0.57;100.00;99881.78;5038415;28;20496;-87
2021/12/11 01:04:19;;;;;;;28.20;12.93;;;;;;;-0.60;100.00;99880.00;5062003;28;20981;-86
2021/12/11 01:06:55;;;;;;;24.25;12.85;;;;;;;-0.65;100.00;99884.16;5026140;28;20106;-86
2021/12/11 01:09:28;;;;;;;32.80;13.93;;;;;;;-0.64;100.00;99888.44;5040510;28;20117;-86
2021/12/11 01:12:14;;;;;;;21.60;12.38;;;;;;;-0.64;100.00;99893.59;5024562;28;20079;-85
2021/12/11 01:14:58;;;;;;;27.05;12.98;;;;;;;-0.62;100.00;99896.22;5061735;28;20042;-86
2021/12/11 01:17:46;;;;;;;22.73;12.38;;;;;;;-0.62;100.00;99902.22;5046837;28;20060;-86
2021/12/11 01:20:47;;;;;;;23.58;12.55;;;;;;;-0.62;100.00;99911.66;5037351;28;20045;-85
2021/12/11 01:23:27;;;;;;;20.80;12.60;;;;;;;-0.59;100.00;99904.00;5016395;28;20045;-86
2021/12/11 01:25:54;;;;;;;28.13;13.32;;;;;;;-0.57;100.00;99922.91;5042279;28;20052;-86
2021/12/11 01:28:23;;;;;;;25.20;13.38;;;;;;;-0.58;100.00;99923.75;5026878;28;21302;-86
2021/12/11 01:30:50;;;;;;;19.88;12.95;;;;;;;-0.60;100.00;99923.72;5037362;28;20045;-86
2021/12/11 01:33:19;;;;;;;21.23;12.10;;;;;;;-0.59;100.00;99933.13;5060992;28;20052;-86
2021/12/11 01:35:47;;;;;;;29.60;12.13;;;;;;;-0.60;100.00;99938.25;5033119;28;20056;-86
2021/12/11 01:38:22;;;;;;;21.90;12.70;;;;;;;-0.64;100.00;99950.13;5028541;28;20049;-85
2021/12/11 01:41:01;;;;;;;35.03;12.90;;;;;;;-0.67;100.00;99956.06;5041554;28;20163;-85
2021/12/11 01:43:31;;;;;;;20.45;11.57;;;;;;;-0.66;100.00;99964.69;5058392;28;20188;-86
2021/12/11 01:46:00;;;;;;;22.27;12.23;;;;;;;-0.62;100.00;99971.63;5048260;28;20143;-86
2021/12/11 01:48:38;;;;;;;19.88;12.18;;;;;;;-0.57;100.00;99971.75;5050162;28;20048;-86
2021/12/11 01:51:33;;;;;;;21.10;12.90;;;;;;;-0.55;100.00;99978.69;5059274;28;20049;-85
2021/12/11 01:54:23;;;;;;;21.17;11.70;;;;;;;-0.53;100.00;99987.28;5049125;28;20128;-86
2021/12/11 01:56:59;;;;;;;21.08;12.15;;;;;;;-0.51;100.00;99992.47;5028145;28;20131;-86
2021/12/11 01:59:40;;;;;;;21.80;11.45;;;;;;;-0.52;100.00;100001.88;5056803;28;20049;-85
2021/12/11 02:02:19;;;;;;;23.23;13.43;;;;;;;-0.55;100.00;100001.81;5028638;28;20041;-86
2021/12/11 02:04:53;;;;;;;25.23;13.85;;;;;;;-0.53;100.00;100000.13;5066443;28;20810;-86
2021/12/11 02:07:43;;;;;;;24.77;12.77;;;;;;;-0.50;100.00;100004.50;5069434;28;20045;-85
2021/12/11 02:10:23;;;;;;;22.80;14.15;;;;;;;-0.50;100.00;100017.34;5057918;28;20519;-86
2021/12/11 02:12:52;;;;;;;24.67;13.98;;;;;;;-0.48;100.00;100010.56;5034363;28;20064;-86
2021/12/11 02:15:32;;;;;;;19.63;12.45;;;;;;;-0.45;100.00;100018.34;5027472;28;20044;-86
2021/12/11 02:18:15;;;;;;;27.75;13.77;;;;;;;-0.42;100.00;100017.53;5033535;28;20068;-86
2021/12/11 02:20:59;;;;;;;22.52;13.52;;;;;;;-0.42;100.00;100023.53;5042953;28;20049;-86
2021/12/11 02:23:27;;;;;;;22.60;14.55;;;;;;;-0.42;100.00;100026.13;5035064;28;20045;-86
2021/12/11 02:26:04;;;;;;;25.00;13.68;;;;;;;-0.42;100.00;100035.53;5051338;28;20400;-86
2021/12/11 02:28:40;;;;;;;18.67;12.60;;;;;;;-0.44;100.00;100038.06;5060731;28;20290;-86
2021/12/11 02:31:38;;;;;;;23.25;12.80;;;;;;;-0.42;100.00;100045.81;5059542;28;20052;-86
2021/12/11 02:34:27;;;;;;;22.13;12.80;;;;;;;-0.44;100.00;100050.03;5027773;28;20045;-87
2021/12/11 02:37:06;;;;;;;24.67;12.68;;;;;;;-0.48;100.00;100059.41;5047582;28;20060;-86
2021/12/11 02:39:55;;;;;;;21.55;12.85;;;;;;;-0.50;100.00;100048.19;5039832;28;20142;-86
2021/12/11 02:42:55;;;;;;;25.70;14.20;;;;;;;-0.52;100.00;100053.31;5027380;28;20048;-86
2021/12/11 02:45:38;;;;;;;23.42;12.32;;;;;;;-0.48;100.00;100064.53;5059284;28;20480;-86
2021/12/11 02:48:13;;;;;;;24.42;14.20;;;;;;;-0.48;100.00;100061.97;5031639;28;20053;-86
2021/12/11 02:50:50;;;;;;;24.52;13.10;;;;;;;-0.53;100.00;100064.41;5041885;28;20136;-86
2021/12/11 02:53:25;;;;;;;26.13;15.00;;;;;;;-0.55;100.00;100068.66;5045283;28;20051;-86
2021/12/11 02:56:23;;;;;;;22.40;12.60;;;;;;;-0.57;100.00;100065.16;5065233;28;20045;-86
2021/12/11 02:58:56;;;;;;;22.88;12.25;;;;;;;-0.59;100.00;100069.38;5022352;28;20156;-86
2021/12/11 03:01:33;;;;;;;24.30;12.80;;;;;;;-0.64;100.00;100077.81;5031677;28;20048;-86
2021/12/11 03:04:16;;;;;;;44.58;16.17;;;;;;;-0.70;100.00;100086.25;5044348;28;20044;-86
2021/12/11 03:06:46;;;;;;;24.92;12.95;;;;;;;-0.78;100.00;100074.84;5017838;28;20095;-86
2021/12/11 03:09:18;;;;;;;21.95;12.80;;;;;;;-0.84;100.00;100084.13;5058586;28;20060;-86
2021/12/11 03:11:46;;;;;;;22.23;11.15;;;;;;;-0.89;100.00;100093.41;5050768;28;20125;-86
2021/12/11 03:14:16;;;;;;;20.00;13.32;;;;;;;-0.91;100.00;100086.47;5048750;28;20049;-86
2021/12/11 03:16:50;;;;;;;19.77;12.20;;;;;;;-0.89;100.00;100088.25;5048104;28;20115;-86
2021/12/11 03:19:18;;;;;;;;;;;;;;;-0.90;100.00;100094.25;4994802;28;20995;-86
2021/12/11 03:21:47;;;;;;;19.80;11.23;;;;;;;-0.88;100.00;100100.28;5032291;28;21319;-86
2021/12/11 03:24:16;;;;;;;28.65;13.57;;;;;;;-0.87;100.00;100107.19;5012126;28;20121;-86
2021/12/11 03:26:49;;;;;;;21.48;11.98;;;;;;;-0.92;100.00;100118.16;5065203;28;20160;-86
2021/12/11 03:29:19;;;;;;;22.67;13.32;;;;;;;-0.95;100.00;100116.38;5030671;28;20528;-86
2021/12/11 03:31:46;;;;;;;24.88;13.23;;;;;;;-0.96;100.00;100124.06;5046065;28;20047;-85
2021/12/11 03:34:21;;;;;;;23.42;13.57;;;;;;;-0.97;100.00;100125.72;5032127;28;20843;-86
2021/12/11 03:36:50;;;;;;;28.02;13.52;;;;;;;-0.96;100.00;100126.63;5047671;28;21882;-86
2021/12/11 03:39:24;;;;;;;30.77;13.35;;;;;;;-0.95;100.00;100128.34;5042346;28;20053;-86
2021/12/11 03:41:54;;;;;;;24.25;13.77;;;;;;;-0.94;100.00;100140.38;5049276;28;20063;-86
2021/12/11 03:44:22;;;;;;;21.60;12.15;;;;;;;-0.92;100.00;100138.72;5030966;28;20044;-86
2021/12/11 03:46:54;;;;;;;21.35;12.60;;;;;;;-0.91;100.00;100143.00;5015054;28;20041;-86
2021/12/11 03:49:23;;;;;;;22.88;11.98;;;;;;;-0.90;100.00;100155.94;5005808;28;20130;-86
2021/12/11 03:51:53;;;;;;;19.77;12.38;;;;;;;-0.88;100.00;100153.41;5014961;28;20060;-86
2021/12/11 03:54:29;;;;;;;18.25;11.65;;;;;;;-0.84;100.00;100158.66;5063572;28;20337;-86
2021/12/11 03:57:02;;;;;;;18.98;11.70;;;;;;;-0.84;100.00;100157.78;5029552;28;20041;-85
2021/12/11 03:59:31;;;;;;;18.70;10.85;;;;;;;-0.91;100.00;100166.13;5025904;28;20433;-86
2021/12/11 04:02:05;;;;;;;17.45;10.38;;;;;;;-0.93;100.00;100163.53;5012038;28;20045;-86
2021/12/11 04:04:42;;;;;;;14.20;8.95;;;;;;;-0.96;100.00;100175.44;5031366;28;20122;-86
2021/12/11 04:07:14;;;;;;;18.10;10.82;;;;;;;-1.01;100.00;100181.28;5018043;28;20925;-86
2021/12/11 04:09:42;;;;;;;15.05;9.68;;;;;;;-1.04;100.00;100170.91;5021620;28;20109;-86
2021/12/11 04:12:10;;;;;;;14.20;9.32;;;;;;;-1.03;100.00;100176.91;5049345;28;20053;-87
2021/12/11 04:14:42;;;;;;;15.95;9.95;;;;;;;-1.04;100.00;100186.34;5058292;28;20860;-86
2021/12/11 04:17:12;;;;;;;14.30;8.98;;;;;;;-1.07;100.00;100185.38;5031084;28;20538;-86
2021/12/11 04:19:43;;;;;;;13.27;8.73;;;;;;;-1.08;100.00;100196.47;5008208;28;20167;-86
2021/12/11 04:22:11;;;;;;;14.27;8.68;;;;;;;-1.11;100.00;100204.94;5027813;28;20159;-86
2021/12/11 04:24:43;;;;;;;11.95;7.93;;;;;;;-1.10;100.00;100210.97;5045965;28;20980;-86
2021/12/11 04:27:15;;;;;;;12.85;8.48;;;;;;;-1.07;100.00;100206.81;5028552;28;20040;-86
2021/12/11 04:29:43;;;;;;;12.18;8.68;;;;;;;-1.02;100.00;100210.38;5023549;28;20390;-86
2021/12/11 04:32:11;;;;;;;12.80;9.60;;;;;;;-1.00;100.00;100215.56;5047621;28;20056;-86
2021/12/11 04:34:40;;;;;;;14.40;8.93;;;;;;;-0.96;100.00;100221.69;5031093;28;20037;-86
2021/12/11 04:37:15;;;;;;;17.02;9.10;;;;;;;-0.95;100.00;100229.44;5065990;28;20049;-86
2021/12/11 04:39:52;;;;;;;11.95;8.90;;;;;;;-0.95;100.00;100221.72;5053477;28;20040;-87
2021/12/11 04:42:32;;;;;;;14.88;9.05;;;;;;;-0.96;100.00;100224.25;5048188;28;20079;-87
2021/12/11 04:44:59;;;;;;;14.98;9.60;;;;;;;-0.97;100.00;100225.94;5060056;28;20187;-87
2021/12/11 04:47:36;;;;;;;13.75;10.02;;;;;;;-0.96;100.00;100237.09;5033720;28;20045;-85
2021/12/11 04:50:16;;;;;;;13.05;9.68;;;;;;;-0.93;100.00;100240.59;5027883;28;20130;-86
2021/12/11 04:52:53;;;;;;;12.43;9.10;;;;;;;-0.92;100.00;100246.63;5023647;28;20363;-86
2021/12/11 04:55:31;;;;;;;16.00;9.70;;;;;;;-0.92;100.00;100257.78;5060452;28;20060;-85
2021/12/11 04:58:28;;;;;;;16.20;9.93;;;;;;;-0.89;100.00;100262.16;5052069;28;20052;-86
2021/12/11 05:01:07;;;;;;;16.48;10.52;;;;;;;-0.89;100.00;100265.56;5028451;28;20533;-85
2021/12/11 05:06:29;;;;;;;12.80;8.40;;;;;;;-0.88;100.00;100266.47;5057001;28;20053;-85
2021/12/11 05:09:23;;;;;;;15.63;11.25;;;;;;;-0.86;100.00;100281.09;5040102;28;20527;-85
2021/12/11 05:12:17;;;;;;;15.20;10.93;;;;;;;-0.88;100.00;100276.75;5028413;28;20063;-86
2021/12/11 05:14:45;;;;;;;13.55;9.35;;;;;;;-0.87;100.00;100281.06;5045514;28;20309;-86
2021/12/11 05:17:16;;;;;;;14.63;10.32;;;;;;;-0.86;100.00;100290.50;5025991;28;20538;-86
2021/12/11 05:19:45;;;;;;;16.15;8.98;;;;;;;-0.87;100.00;100297.34;5038698;28;20045;-86
2021/12/11 05:22:16;;;;;;;13.70;7.57;;;;;;;-0.88;100.00;100299.88;5046642;28;20045;-86
2021/12/11 05:24:48;;;;;;;12.85;8.23;;;;;;;-0.86;100.00;100303.34;5064827;28;21360;-86
2021/12/11 05:27:15;;;;;;;13.10;9.15;;;;;;;-0.85;100.00;100308.56;5048769;28;20715;-86
2021/12/11 05:29:43;;;;;;;12.88;8.63;;;;;;;-0.86;100.00;100311.06;5027702;28;20606;-86
2021/12/11 05:32:15;;;;;;;12.65;9.55;;;;;;;-0.87;100.00;100315.34;5046920;28;20651;-86
2021/12/11 05:34:42;;;;;;;13.20;9.55;;;;;;;-0.86;100.00;100323.91;5058734;28;20037;-85
2021/12/11 05:37:10;;;;;;;14.02;9.32;;;;;;;-0.87;100.00;100317.91;5060164;28;20142;-86
2021/12/11 05:39:37;;;;;;;17.35;9.98;;;;;;;-0.85;100.00;100329.13;5016525;28;20380;-86
2021/12/11 05:42:08;;;;;;;14.48;9.07;;;;;;;-0.86;100.00;100326.47;5041534;28;20111;-86
2021/12/11 05:44:35;;;;;;;16.67;10.65;;;;;;;-0.86;100.00;100335.06;5045661;28;20049;-86
2021/12/11 05:47:04;;;;;;;14.85;9.82;;;;;;;-0.82;100.00;100340.28;5041474;28;20533;-86
2021/12/11 05:49:32;;;;;;;15.05;9.55;;;;;;;-0.83;100.00;100344.56;5060756;28;20482;-86
2021/12/11 05:52:00;;;;;;;13.60;9.60;;;;;;;-0.82;100.00;100353.16;5046635;28;20537;-86
2021/12/11 05:54:29;;;;;;;12.68;8.05;;;;;;;-0.80;100.00;100354.94;5029112;28;20041;-86
2021/12/11 05:57:03;;;;;;;14.32;9.15;;;;;;;-0.79;100.00;100358.41;5050718;28;20045;-86
2021/12/11 05:59:30;;;;;;;14.68;8.40;;;;;;;-0.79;100.00;100369.53;5028926;28;20057;-85
2021/12/11 06:02:19;;;;;;;17.48;10.07;;;;;;;-0.80;100.00;100365.22;5048412;28;20068;-86
2021/12/11 06:04:51;;;;;;;13.70;9.40;;;;;;;-0.78;100.00;100371.31;5048251;28;20142;-86
2021/12/11 06:07:20;;;;;;;14.40;8.88;;;;;;;-0.78;100.00;100371.31;5027206;28;20667;-86
2021/12/11 06:09:54;;;;;;;14.65;9.60;;;;;;;-0.77;100.00;100369.59;5030508;28;20050;-86
2021/12/11 06:12:22;;;;;;;;;;;;;;;-0.75;100.00;100370.53;5044689;28;20676;-86
2021/12/11 06:14:52;;;;;;;14.77;9.55;;;;;;;-0.72;100.00;100368.03;5024032;28;19931;-86
2021/12/11 06:17:27;;;;;;;15.35;9.60;;;;;;;-0.71;100.00;100370.66;5028367;28;20598;-86
2021/12/11 06:19:55;;;;;;;15.02;10.35;;;;;;;-0.70;100.00;100371.56;5057794;28;20277;-85
2021/12/11 06:22:34;;;;;;;15.30;9.77;;;;;;;-0.70;100.00;100380.13;5061619;28;20041;-86
2021/12/11 06:25:11;;;;;;;17.63;10.25;;;;;;;-0.68;100.00;100386.19;5044323;28;20051;-86
2021/12/11 06:27:40;;;;;;;14.63;9.95;;;;;;;-0.66;100.00;100396.53;5030179;28;20099;-86
2021/12/11 06:30:09;;;;;;;15.35;9.70;;;;;;;-0.64;100.00;100401.72;5021700;28;20064;-86
2021/12/11 06:32:36;;;;;;;15.40;9.20;;;;;;;-0.62;100.00;100408.66;5024910;28;20053;-86
2021/12/11 06:35:30;;;;;;;16.95;8.90;;;;;;;-0.61;100.00;100414.66;5041111;28;20115;-86
2021/12/11 06:37:58;;;;;;;14.60;9.20;;;;;;;-0.60;100.00;100421.56;5031781;28;20785;-87
2021/12/11 06:40:27;;;;;;;15.77;9.80;;;;;;;-0.60;100.00;100427.59;5058675;28;20290;-86
2021/12/11 06:42:55;;;;;;;15.90;10.23;;;;;;;-0.59;100.00;100428.44;5024621;28;20303;-85
2021/12/11 06:45:24;;;;;;;15.82;9.55;;;;;;;-0.60;100.00;100432.72;5060675;28;20434;-86
2021/12/11 06:47:52;;;;;;;15.73;10.25;;;;;;;-0.60;100.00;100432.72;5022984;28;20084;-86
2021/12/11 06:50:19;;;;;;;15.50;10.20;;;;;;;-0.60;100.00;100437.88;5030681;28;20084;-86
2021/12/11 06:52:49;;;;;;;16.67;10.20;;;;;;;-0.61;100.00;100440.38;5031932;28;20256;-86
2021/12/11 06:55:19;;;;;;;15.27;8.82;;;;;;;-0.62;100.00;100444.66;5043689;28;20044;-86
2021/12/11 06:57:48;;;;;;;16.85;10.15;;;;;;;-0.60;100.00;100454.97;5064576;28;20137;-86
2021/12/11 07:00:21;;;;;;;17.63;10.38;;;;;;;-0.59;100.00;100464.44;5001081;28;20051;-86
2021/12/11 07:02:47;;;;;;;12.23;8.80;;;;;;;-0.60;100.00;100455.88;5048374;28;20491;-86
2021/12/11 07:05:17;;;;;;;17.27;10.40;;;;;;;-0.57;100.00;100462.81;5050262;28;20051;-86
2021/12/11 07:07:44;;;;;;;17.20;9.52;;;;;;;-0.56;100.00;100467.09;5010872;28;20510;-86
2021/12/11 07:10:14;;;;;;;15.60;9.70;;;;;;;-0.57;100.00;100467.94;5059184;28;20422;-86
2021/12/11 07:12:46;;;;;;;14.30;9.48;;;;;;;-0.58;100.00;100474.78;5055663;28;20511;-86
2021/12/11 07:15:13;;;;;;;16.02;9.73;;;;;;;-0.58;100.00;100479.91;5018979;28;20045;-86
2021/12/11 07:17:40;;;;;;;16.70;9.82;;;;;;;-0.64;100.00;100486.56;5032287;28;20049;-86
2021/12/11 07:20:11;;;;;;;17.20;10.32;;;;;;;-0.71;100.00;100493.19;5041308;28;20048;-86
2021/12/11 07:22:40;;;;;;;13.55;9.50;;;;;;;-0.76;100.00;100503.28;5062657;28;20041;-86
2021/12/11 07:25:28;;;;;;;17.95;10.05;;;;;;;-0.85;100.00;100495.25;5029228;28;20521;-86
2021/12/11 07:27:58;;;;;;;15.68;9.48;;;;;;;-0.96;100.00;100505.19;5062669;28;20045;-86
2021/12/11 07:30:25;;;;;;;18.55;10.45;;;;;;;-1.08;100.00;100528.75;5038065;28;20403;-86
2021/12/11 07:32:55;;;;;;;17.48;9.25;;;;;;;-1.19;100.00;100517.19;5032408;28;20049;-85
2021/12/11 07:35:23;;;;;;;15.13;10.45;;;;;;;-1.31;100.00;100502.22;5060369;28;20047;-86
2021/12/11 07:37:53;;;;;;;17.13;9.82;;;;;;;-1.40;100.00;100536.13;5009163;28;20061;-86
2021/12/11 07:40:25;;;;;;;17.85;11.27;;;;;;;-1.46;100.00;100543.63;5014728;28;20053;-86
2021/12/11 07:42:53;;;;;;;17.02;11.30;;;;;;;-1.54;100.00;100539.84;5044591;28;20464;-86
2021/12/11 07:45:20;;;;;;;18.27;11.15;;;;;;;-1.62;100.00;100531.84;5029532;28;20048;-86
2021/12/11 07:47:47;;;;;;;22.27;12.43;;;;;;;-1.65;100.00;100539.47;5045488;28;20460;-86
2021/12/11 07:50:14;;;;;;;16.02;10.30;;;;;;;-1.71;100.00;100546.91;5056076;28;20123;-86
2021/12/11 07:52:41;;;;;;;20.23;11.57;;;;;;;-1.80;100.00;100549.97;5013588;28;20053;-86
2021/12/11 07:55:09;;;;;;;15.70;9.82;;;;;;;-1.84;100.00;100554.13;5060988;28;20523;-85
2021/12/11 07:57:37;;;;;;;22.58;11.57;;;;;;;-1.86;100.00;100563.44;5044690;28;20052;-85
2021/12/11 08:00:13;;;;;;;19.02;11.80;;;;;;;-1.92;100.00;100573.47;5028984;28;20345;-86
2021/12/11 08:02:40;;;;;;;17.38;10.38;;;;;;;-2.01;100.00;100579.13;5029674;28;20048;-86
2021/12/11 08:05:07;;;;;;;20.58;11.52;;;;;;;-2.02;100.00;100589.28;5025592;28;20076;-86
2021/12/11 08:07:34;;;;;;;18.75;11.50;;;;;;;-2.03;100.00;100596.13;5047485;28;20118;-86
2021/12/11 08:10:01;;;;;;;21.25;12.23;;;;;;;-2.03;100.00;100598.69;5028262;28;20049;-87
2021/12/11 08:12:28;;;;;;;19.83;11.93;;;;;;;-2.02;100.00;100603.00;5062221;28;20045;-86
2021/12/11 08:14:54;;;;;;;19.20;11.90;;;;;;;-2.04;100.00;100607.19;5046571;28;20416;-86
2021/12/11 08:17:21;;;;;;;23.58;12.80;;;;;;;-2.05;100.00;100602.00;5027963;28;23672;-86
2021/12/11 08:19:48;;;;;;;17.65;11.65;;;;;;;-2.04;100.00;100611.47;5028612;28;20062;-86
2021/12/11 08:22:14;;;;;;;20.20;12.05;;;;;;;-2.05;100.00;100615.69;5029985;28;20120;-86
2021/12/11 08:24:41;;;;;;;20.27;11.27;;;;;;;-2.03;100.00;100619.22;5043325;28;20045;-86
2021/12/11 08:27:21;;;;;;;21.73;12.50;;;;;;;-1.98;100.00;100624.53;5022016;28;20152;-86
2021/12/11 08:29:52;;;;;;;16.45;11.27;;;;;;;-1.93;100.00;100634.97;5025518;28;20053;-85
2021/12/11 08:32:25;;;;;;;15.43;10.95;;;;;;;-1.89;100.00;100639.41;5027651;28;20053;-86
2021/12/11 08:34:53;;;;;;;14.43;9.80;;;;;;;-1.84;100.00;100641.38;5029428;28;22405;-86
2021/12/11 08:37:23;;;;;;;15.82;11.43;;;;;;;-1.79;100.00;100645.81;5028873;28;20296;-86
2021/12/11 08:39:50;;;;;;;21.73;11.80;;;;;;;-1.74;100.00;100644.31;5038946;28;20055;-86
2021/12/11 08:42:24;;;;;;;15.65;9.85;;;;;;;-1.70;100.00;100651.31;5040007;28;20486;-84
2021/12/11 08:44:58;;;;;;;;;;;;;;;-1.68;100.00;100652.28;5023245;28;20061;-85
2021/12/11 08:47:25;;;;;;;;;;;;;;;-1.64;100.00;100666.09;5026713;28;19929;-85
2021/12/11 08:49:54;;;;;;;18.70;10.90;;;;;;;-1.63;100.00;100663.63;5058015;28;19932;-85
2021/12/11 08:52:32;;;;;;;18.38;11.40;;;;;;;-1.60;100.00;100660.25;5021549;28;20052;-85
2021/12/11 08:55:02;;;;;;;15.57;9.88;;;;;;;-1.60;100.00;100663.72;5051993;28;20045;-85
2021/12/11 08:57:36;;;;;;;15.88;10.65;;;;;;;-1.59;100.00;100665.47;5048886;28;20052;-85
2021/12/11 09:00:25;;;;;;;18.92;11.25;;;;;;;-1.57;100.00;100665.53;5028872;28;20053;-86
2021/12/11 09:03:20;;;;;;;16.05;10.15;;;;;;;-1.57;100.00;100674.09;5015950;28;20554;-85
2021/12/11 09:06:14;;;;;;;25.90;13.23;;;;;;;-1.55;100.00;100680.19;5045768;28;20504;-86
2021/12/11 09:09:00;;;;;;;25.38;12.98;;;;;;;-1.53;100.00;100691.38;5021589;28;21418;-86
2021/12/11 09:11:37;;;;;;;22.35;11.95;;;;;;;-1.51;100.00;100691.47;5061774;28;20049;-86
2021/12/11 09:14:28;;;;;;;19.00;11.82;;;;;;;-1.47;100.00;100695.91;5066182;28;20103;-86
2021/12/11 09:17:15;;;;;;;20.10;10.50;;;;;;;-1.45;100.00;100696.81;5042955;28;20904;-85
2021/12/11 09:20:02;;;;;;;23.05;12.57;;;;;;;-1.40;100.00;100700.47;5013796;28;20144;-85
2021/12/11 09:22:36;;;;;;;17.73;12.45;;;;;;;-1.35;100.00;100698.09;5039320;28;20045;-86
2021/12/11 09:25:19;;;;;;;19.65;13.00;;;;;;;-1.30;100.00;100705.97;5064371;28;20041;-86
2021/12/11 09:27:55;;;;;;;22.60;13.52;;;;;;;-1.24;100.00;100706.22;5041485;28;20046;-86
2021/12/11 09:30:51;;;;;;;24.10;12.43;;;;;;;-1.17;100.00;100703.09;5034226;28;20049;-85
2021/12/11 09:33:26;;;;;;;20.88;13.60;;;;;;;-1.09;100.00;100705.97;5030896;28;20045;-86
2021/12/11 09:35:58;;;;;;;;;;;;;;;-1.03;100.00;100717.34;5063061;28;20048;-86
2021/12/11 09:38:34;;;;;;;24.83;13.20;;;;;;;-0.99;100.00;100715.78;5032219;28;20515;-86
2021/12/11 09:41:00;;;;;;;22.08;14.27;;;;;;;-0.95;100.00;100715.06;5015820;28;20062;-86
2021/12/11 09:44:05;;;;;;;23.83;13.60;;;;;;;-0.90;100.00;100717.81;5032324;28;20049;-85
2021/12/11 09:46:47;;;;;;;24.85;14.32;;;;;;;-0.88;100.00;100722.19;5047137;28;20098;-86
2021/12/11 09:49:20;;;;;;;18.90;12.88;;;;;;;-0.82;100.00;100720.66;5063544;28;20079;-86
2021/12/11 09:51:50;;;;;;;27.27;14.77;;;;;;;-0.72;100.00;100733.06;5063159;28;20770;-86
2021/12/11 09:54:24;;;;;;;41.20;19.25;;;;;;;-0.63;100.00;100732.53;5031349;28;20052;-86
2021/12/11 09:56:58;;;;;;;35.53;19.27;;;;;;;-0.55;100.00;100739.72;5049795;28;20415;-85
2021/12/11 09:59:28;;;;;;;26.52;15.13;;;;;;;-0.47;100.00;100734.88;5009768;28;20049;-85
2021/12/11 10:02:01;;;;;;;27.10;14.63;;;;;;;-0.39;100.00;100740.28;5033364;28;20045;-85
2021/12/11 10:04:36;;;;;;;30.30;16.77;;;;;;;-0.32;100.00;100744.84;5011761;28;20052;-86
2021/12/11 10:07:25;;;;;;;28.10;15.32;;;;;;;-0.30;100.00;100745.78;5047835;28;20045;-86
2021/12/11 10:10:22;;;;;;;24.10;14.50;;;;;;;-0.30;100.00;100745.78;5059830;28;20049;-86
2021/12/11 10:12:58;;;;;;;23.58;13.48;;;;;;;-0.27;100.00;100750.16;5046831;28;20053;-86
2021/12/11 10:15:38;;;;;;;21.65;13.75;;;;;;;-0.22;100.00;100758.91;5045791;28;20076;-86
2021/12/11 10:18:15;;;;;;;26.33;15.27;;;;;;;-0.17;100.00;100755.69;5025133;28;20076;-86
2021/12/11 10:20:56;;;;;;;24.48;13.52;;;;;;;-0.06;100.00;100762.94;5029577;28;20059;-85
2021/12/11 10:23:30;;;;;;;25.92;15.38;;;;;;;0.00;100.00;100760.59;5003525;28;20057;-85
2021/12/11 10:26:01;;;;;;;26.02;14.38;;;;;;;0.08;100.00;100761.72;5029220;28;20087;-86
2021/12/11 10:28:30;;;;;;;21.83;13.05;;;;;;;0.11;100.00;100769.53;5031796;28;20065;-85
2021/12/11 10:31:05;;;;;;;22.05;13.57;;;;;;;0.19;100.00;100771.53;5033560;28;20052;-85
2021/12/11 10:33:33;;;;;;;22.73;12.73;;;;;;;0.27;100.00;100773.53;5056314;28;20040;-86
2021/12/11 10:36:10;;;;;;;23.23;13.32;;;;;;;0.35;100.00;100778.06;5044624;28;20463;-86
2021/12/11 10:38:40;;;;;;;24.02;13.77;;;;;;;0.44;100.00;100784.44;5034456;28;20140;-85
2021/12/11 10:41:13;;;;;;;20.60;13.77;;;;;;;0.50;100.00;100786.34;5025763;28;20053;-86
2021/12/11 10:43:53;;;;;;;24.05;12.93;;;;;;;0.54;100.00;100795.06;5023411;28;20072;-86
2021/12/11 10:46:28;;;;;;;21.63;11.55;;;;;;;0.59;100.00;100798.66;5037467;28;20487;-86
2021/12/11 10:49:14;;;;;;;20.92;12.05;;;;;;;0.67;100.00;100804.94;5044338;28;20096;-86
2021/12/11 10:54:35;;;;;;;24.60;13.07;;;;;;;0.79;100.00;100813.06;5033170;28;20053;-86
2021/12/11 10:57:03;;;;;;;21.23;12.98;;;;;;;0.85;100.00;100811.53;5048657;28;20044;-86
2021/12/11 10:59:42;;;;;;;24.02;13.50;;;;;;;0.90;100.00;100820.28;5042535;28;20123;-86
2021/12/11 11:02:35;;;;;;;19.42;11.35;;;;;;;0.88;100.00;100812.50;5043864;28;20099;-86
2021/12/11 11:05:19;;;;;;;19.60;13.02;;;;;;;0.90;100.00;100826.34;5047714;28;20040;-86
2021/12/11 11:07:47;;;;;;;23.30;12.93;;;;;;;0.95;100.00;100822.22;5012296;28;20052;-86
2021/12/11 11:10:21;;;;;;;21.92;11.73;;;;;;;1.02;100.00;100825.84;5012459;28;20045;-86
2021/12/11 11:12:50;;;;;;;20.30;12.10;;;;;;;1.08;100.00;100826.06;5007765;28;20061;-86
2021/12/11 11:15:21;;;;;;;21.95;14.25;;;;;;;1.13;100.00;100829.66;5048269;28;20048;-86
2021/12/11 11:17:49;;;;;;;20.50;11.88;;;;;;;1.19;99.62;100828.97;5015811;28;20060;-86
2021/12/11 11:20:29;;;;;;;16.88;11.68;;;;;;;1.25;99.48;100831.75;5057939;28;20044;-86
2021/12/11 11:22:56;;;;;;;22.75;12.02;;;;;;;1.34;97.80;100838.88;5047931;28;22130;-86
2021/12/11 11:25:30;;;;;;;18.25;12.93;;;;;;;1.44;96.69;100842.66;5058424;28;20041;-86
2021/12/11 11:28:05;;;;;;;24.10;12.77;;;;;;;1.48;95.68;100835.03;5030041;28;20281;-86
2021/12/11 11:30:41;;;;;;;23.33;11.60;;;;;;;1.51;95.93;100833.41;5060030;28;21154;-86
2021/12/11 11:33:10;;;;;;;20.65;11.90;;;;;;;1.53;95.06;100839.50;5013721;28;21396;-85
2021/12/11 11:35:47;;;;;;;19.92;10.93;;;;;;;1.57;93.99;100843.91;5030350;28;20783;-86
2021/12/11 11:38:20;;;;;;;17.98;10.75;;;;;;;1.57;93.64;100839.63;5044105;28;20036;-86
2021/12/11 11:40:53;;;;;;;20.73;12.05;;;;;;;1.60;93.80;100850.06;5042012;28;20045;-87
2021/12/11 11:43:20;;;;;;;21.00;10.30;;;;;;;1.61;93.83;100846.63;5042451;28;20558;-86
2021/12/11 11:45:52;;;;;;;22.17;12.70;;;;;;;1.67;93.91;100850.22;5061898;28;20061;-86